Griffiss International Airport
KRME : rendu visible

Aérodrome :











RETROUVEZ-NOUS SUR...

 
LOGIN :

S'inscrire | Disclaimer

   EN    FR    IT 

 









Légende :    VFR   VFR Marginal   IFR   IFR Intensif   IFR Très Intensif
Visi : 
Plafond : 
>= 8 km
>= 3000ft
5 à 8 km
1000 à 3000 ft
1500m à 5 km
500 à 1000 ft
800 à 1500m
200 à 500 ft
< 800m
< 200 ft
Symboles :   Orages  Brouillard  Fortes neiges  Fortes précipitations  Vent > 20 kt






- Altitude de l'aérodrome : 504 ft


KRME - Griffiss International

DERNIER METAR :
  • 131433Z 21003KT 10SM SCT017 BKN028 M11/M15 A3039 RMK AO2 T11111150

METARs EXPIRÉS :
  • 131353Z 00000KT 10SM CLR M12/M16 A3037 RMK AO2 SLP295 T11171156
  • 131253Z 00000KT 10SM CLR M14/M16 A3035 RMK AO2 SLP286 T11391156
  • 131153Z 00000KT 10SM CLR M15/M16 A3032 RMK AO2 SLP277 T11501161 11106 21156 51027

TAF KRME
Valide du 13 à 12h jusqu'au 14 à 12h UTC


131133Z 1312/1412 32005KT P6SM SCT025
FM131600 28007KT P6SM FEW040 SCT200
FM132200 VRB04KT P6SM BKN150
FM140300 11007KT P6SM BKN080



MET'MAP, la Météo Aéronautique d'un coup d'oeil ! - Copyright ORBIFLY Décembre 2007 - Disclaimer

ORBIFLY MET'MAP TEAM :

Programmation & Développement : Alexandra Zaïnal
Conception & Développement : Baudouin d'Aumeries
Co-Programmation & Développement : Marc-Olivier Méhu
Soutien technique & logistique : Manuel Goepfert

Contact : metmap@orbifly.com




SOURCES & CREDITS :

   NOAA       Earth
Advisory